sensor_id;sensor_type;location;lat;lon;timestamp;P1;durP1;ratioP1;P2;durP2;ratioP2
15635;SDS011;7917;50.818;6.972;2024-03-25T00:01:27;19.20;;;5.43;;
15635;SDS011;7917;50.818;6.972;2024-03-25T00:03:53;13.98;;;4.60;;
15635;SDS011;7917;50.818;6.972;2024-03-25T00:06:20;15.32;;;4.03;;
15635;SDS011;7917;50.818;6.972;2024-03-25T00:08:47;13.35;;;4.80;;
15635;SDS011;7917;50.818;6.972;2024-03-25T00:11:15;14.50;;;4.18;;
15635;SDS011;7917;50.818;6.972;2024-03-25T00:13:41;16.67;;;3.90;;
15635;SDS011;7917;50.818;6.972;2024-03-25T00:16:07;19.48;;;3.70;;
15635;SDS011;7917;50.818;6.972;2024-03-25T00:18:35;15.02;;;4.10;;
15635;SDS011;7917;50.818;6.972;2024-03-25T00:21:02;12.25;;;4.38;;
15635;SDS011;7917;50.818;6.972;2024-03-25T00:23:31;16.65;;;4.57;;
15635;SDS011;7917;50.818;6.972;2024-03-25T00:25:58;9.82;;;3.53;;
15635;SDS011;7917;50.818;6.972;2024-03-25T00:28:26;18.52;;;4.05;;
15635;SDS011;7917;50.818;6.972;2024-03-25T00:30:52;13.38;;;4.13;;
15635;SDS011;7917;50.818;6.972;2024-03-25T00:33:19;12.50;;;3.95;;
15635;SDS011;7917;50.818;6.972;2024-03-25T00:35:49;12.88;;;4.60;;
15635;SDS011;7917;50.818;6.972;2024-03-25T00:38:16;11.70;;;4.38;;
15635;SDS011;7917;50.818;6.972;2024-03-25T00:40:43;9.85;;;3.80;;
15635;SDS011;7917;50.818;6.972;2024-03-25T00:43:10;11.90;;;4.88;;
15635;SDS011;7917;50.818;6.972;2024-03-25T00:45:38;14.25;;;4.93;;
15635;SDS011;7917;50.818;6.972;2024-03-25T00:48:05;15.73;;;4.80;;
15635;SDS011;7917;50.818;6.972;2024-03-25T00:50:31;12.73;;;5.13;;
15635;SDS011;7917;50.818;6.972;2024-03-25T00:52:57;17.15;;;5.43;;
15635;SDS011;7917;50.818;6.972;2024-03-25T00:55:24;18.10;;;5.80;;
15635;SDS011;7917;50.818;6.972;2024-03-25T00:57:50;10.05;;;4.18;;
15635;SDS011;7917;50.818;6.972;2024-03-25T01:00:28;23.95;;;5.18;;
15635;SDS011;7917;50.818;6.972;2024-03-25T01:02:55;21.25;;;4.93;;
15635;SDS011;7917;50.818;6.972;2024-03-25T01:05:21;16.67;;;5.43;;
15635;SDS011;7917;50.818;6.972;2024-03-25T01:07:51;30.23;;;5.50;;
15635;SDS011;7917;50.818;6.972;2024-03-25T01:10:17;24.35;;;5.07;;
15635;SDS011;7917;50.818;6.972;2024-03-25T01:12:43;18.08;;;5.60;;
15635;SDS011;7917;50.818;6.972;2024-03-25T01:15:10;14.25;;;5.03;;
15635;SDS011;7917;50.818;6.972;2024-03-25T01:17:37;16.67;;;5.10;;
15635;SDS011;7917;50.818;6.972;2024-03-25T01:20:04;10.68;;;4.38;;
15635;SDS011;7917;50.818;6.972;2024-03-25T01:22:31;19.75;;;4.65;;
15635;SDS011;7917;50.818;6.972;2024-03-25T01:25:01;13.02;;;4.82;;
15635;SDS011;7917;50.818;6.972;2024-03-25T01:27:27;17.77;;;4.22;;
15635;SDS011;7917;50.818;6.972;2024-03-25T01:29:53;22.50;;;4.90;;
15635;SDS011;7917;50.818;6.972;2024-03-25T01:32:20;23.05;;;6.07;;
15635;SDS011;7917;50.818;6.972;2024-03-25T01:34:47;23.52;;;4.30;;
15635;SDS011;7917;50.818;6.972;2024-03-25T01:37:13;19.10;;;5.18;;
15635;SDS011;7917;50.818;6.972;2024-03-25T01:39:41;16.40;;;4.40;;
15635;SDS011;7917;50.818;6.972;2024-03-25T01:42:07;21.52;;;4.18;;
15635;SDS011;7917;50.818;6.972;2024-03-25T01:44:34;14.57;;;4.13;;
15635;SDS011;7917;50.818;6.972;2024-03-25T01:47:00;13.07;;;3.78;;
15635;SDS011;7917;50.818;6.972;2024-03-25T01:49:27;17.80;;;4.15;;
15635;SDS011;7917;50.818;6.972;2024-03-25T01:51:53;18.90;;;5.60;;
15635;SDS011;7917;50.818;6.972;2024-03-25T01:54:20;16.52;;;4.68;;
15635;SDS011;7917;50.818;6.972;2024-03-25T01:56:48;20.83;;;4.97;;
15635;SDS011;7917;50.818;6.972;2024-03-25T01:59:15;25.10;;;4.55;;
15635;SDS011;7917;50.818;6.972;2024-03-25T02:01:42;18.30;;;4.35;;
15635;SDS011;7917;50.818;6.972;2024-03-25T02:04:10;14.80;;;3.72;;
15635;SDS011;7917;50.818;6.972;2024-03-25T02:06:37;15.57;;;4.28;;
15635;SDS011;7917;50.818;6.972;2024-03-25T02:09:07;15.82;;;4.43;;
15635;SDS011;7917;50.818;6.972;2024-03-25T02:11:36;17.00;;;3.95;;
15635;SDS011;7917;50.818;6.972;2024-03-25T02:14:03;16.80;;;4.13;;
15635;SDS011;7917;50.818;6.972;2024-03-25T02:16:30;16.30;;;4.32;;
15635;SDS011;7917;50.818;6.972;2024-03-25T02:19:00;15.60;;;4.53;;
15635;SDS011;7917;50.818;6.972;2024-03-25T02:21:26;8.75;;;3.33;;
15635;SDS011;7917;50.818;6.972;2024-03-25T02:23:53;15.95;;;3.75;;
15635;SDS011;7917;50.818;6.972;2024-03-25T02:26:26;21.67;;;4.55;;
15635;SDS011;7917;50.818;6.972;2024-03-25T02:28:56;13.57;;;3.95;;
15635;SDS011;7917;50.818;6.972;2024-03-25T02:31:23;13.73;;;4.63;;
15635;SDS011;7917;50.818;6.972;2024-03-25T02:33:49;15.82;;;4.70;;
15635;SDS011;7917;50.818;6.972;2024-03-25T02:36:20;18.25;;;4.57;;
15635;SDS011;7917;50.818;6.972;2024-03-25T02:38:47;15.88;;;4.45;;
15635;SDS011;7917;50.818;6.972;2024-03-25T02:41:13;16.77;;;3.75;;
15635;SDS011;7917;50.818;6.972;2024-03-25T02:43:41;15.50;;;4.47;;
15635;SDS011;7917;50.818;6.972;2024-03-25T02:46:07;18.05;;;3.88;;
15635;SDS011;7917;50.818;6.972;2024-03-25T02:48:35;19.38;;;4.90;;
15635;SDS011;7917;50.818;6.972;2024-03-25T02:51:01;16.33;;;4.53;;
15635;SDS011;7917;50.818;6.972;2024-03-25T02:53:27;10.55;;;3.65;;
15635;SDS011;7917;50.818;6.972;2024-03-25T02:55:53;13.45;;;4.22;;
15635;SDS011;7917;50.818;6.972;2024-03-25T02:58:20;19.33;;;4.32;;
15635;SDS011;7917;50.818;6.972;2024-03-25T03:00:47;22.73;;;4.38;;
15635;SDS011;7917;50.818;6.972;2024-03-25T03:03:14;11.43;;;4.20;;
15635;SDS011;7917;50.818;6.972;2024-03-25T03:05:40;24.50;;;4.43;;
15635;SDS011;7917;50.818;6.972;2024-03-25T03:08:06;16.17;;;5.07;;
15635;SDS011;7917;50.818;6.972;2024-03-25T03:10:32;20.48;;;6.00;;
15635;SDS011;7917;50.818;6.972;2024-03-25T03:13:00;11.35;;;4.10;;
15635;SDS011;7917;50.818;6.972;2024-03-25T03:15:26;13.48;;;4.47;;
15635;SDS011;7917;50.818;6.972;2024-03-25T03:17:53;16.67;;;4.25;;
15635;SDS011;7917;50.818;6.972;2024-03-25T03:20:20;11.45;;;4.10;;
15635;SDS011;7917;50.818;6.972;2024-03-25T03:22:47;17.25;;;4.05;;
15635;SDS011;7917;50.818;6.972;2024-03-25T03:25:13;26.70;;;5.72;;
15635;SDS011;7917;50.818;6.972;2024-03-25T03:27:42;16.30;;;4.10;;
15635;SDS011;7917;50.818;6.972;2024-03-25T03:30:09;20.85;;;4.75;;
15635;SDS011;7917;50.818;6.972;2024-03-25T03:32:36;15.32;;;4.22;;
15635;SDS011;7917;50.818;6.972;2024-03-25T03:35:04;14.52;;;3.85;;
15635;SDS011;7917;50.818;6.972;2024-03-25T03:37:31;22.25;;;4.85;;
15635;SDS011;7917;50.818;6.972;2024-03-25T03:39:57;20.60;;;4.65;;
15635;SDS011;7917;50.818;6.972;2024-03-25T03:42:28;22.00;;;4.43;;
15635;SDS011;7917;50.818;6.972;2024-03-25T03:44:54;15.35;;;4.22;;
15635;SDS011;7917;50.818;6.972;2024-03-25T03:47:21;14.55;;;4.10;;
15635;SDS011;7917;50.818;6.972;2024-03-25T03:49:48;14.93;;;4.72;;
15635;SDS011;7917;50.818;6.972;2024-03-25T03:52:17;11.90;;;3.83;;
15635;SDS011;7917;50.818;6.972;2024-03-25T03:54:43;13.98;;;4.10;;
15635;SDS011;7917;50.818;6.972;2024-03-25T03:57:09;20.85;;;4.75;;
15635;SDS011;7917;50.818;6.972;2024-03-25T03:59:38;18.00;;;4.05;;
15635;SDS011;7917;50.818;6.972;2024-03-25T04:05:29;15.70;;;5.68;;
15635;SDS011;7917;50.818;6.972;2024-03-25T04:08:00;17.45;;;4.72;;
15635;SDS011;7917;50.818;6.972;2024-03-25T04:10:27;16.85;;;4.38;;
15635;SDS011;7917;50.818;6.972;2024-03-25T04:12:54;18.27;;;4.50;;
15635;SDS011;7917;50.818;6.972;2024-03-25T04:15:22;19.13;;;5.18;;
15635;SDS011;7917;50.818;6.972;2024-03-25T04:17:51;22.63;;;4.97;;
15635;SDS011;7917;50.818;6.972;2024-03-25T04:20:18;19.83;;;5.68;;
15635;SDS011;7917;50.818;6.972;2024-03-25T04:22:45;18.50;;;5.38;;
15635;SDS011;7917;50.818;6.972;2024-03-25T04:25:12;15.95;;;4.88;;
15635;SDS011;7917;50.818;6.972;2024-03-25T04:27:41;13.23;;;4.30;;
15635;SDS011;7917;50.818;6.972;2024-03-25T04:30:07;9.65;;;3.97;;
15635;SDS011;7917;50.818;6.972;2024-03-25T04:32:37;16.08;;;4.68;;
15635;SDS011;7917;50.818;6.972;2024-03-25T04:35:04;16.33;;;5.22;;
15635;SDS011;7917;50.818;6.972;2024-03-25T04:37:34;15.15;;;4.82;;
15635;SDS011;7917;50.818;6.972;2024-03-25T04:40:01;19.83;;;4.03;;
15635;SDS011;7917;50.818;6.972;2024-03-25T04:42:28;16.13;;;4.45;;
15635;SDS011;7917;50.818;6.972;2024-03-25T04:44:54;14.75;;;3.97;;
15635;SDS011;7917;50.818;6.972;2024-03-25T04:47:21;13.27;;;4.30;;
15635;SDS011;7917;50.818;6.972;2024-03-25T04:49:47;20.42;;;4.63;;
15635;SDS011;7917;50.818;6.972;2024-03-25T04:52:18;16.80;;;4.38;;
15635;SDS011;7917;50.818;6.972;2024-03-25T04:54:48;19.88;;;4.82;;
15635;SDS011;7917;50.818;6.972;2024-03-25T04:57:15;13.73;;;4.40;;
15635;SDS011;7917;50.818;6.972;2024-03-25T04:59:49;13.98;;;4.20;;
15635;SDS011;7917;50.818;6.972;2024-03-25T05:02:15;13.25;;;4.05;;
15635;SDS011;7917;50.818;6.972;2024-03-25T05:04:41;21.55;;;4.90;;
15635;SDS011;7917;50.818;6.972;2024-03-25T05:07:07;19.92;;;4.60;;
15635;SDS011;7917;50.818;6.972;2024-03-25T05:09:34;14.82;;;4.80;;
15635;SDS011;7917;50.818;6.972;2024-03-25T05:12:00;24.45;;;7.80;;
15635;SDS011;7917;50.818;6.972;2024-03-25T05:14:26;21.50;;;4.72;;
15635;SDS011;7917;50.818;6.972;2024-03-25T05:16:53;20.38;;;6.13;;
15635;SDS011;7917;50.818;6.972;2024-03-25T05:19:20;15.90;;;4.80;;
15635;SDS011;7917;50.818;6.972;2024-03-25T05:21:46;19.95;;;4.53;;
15635;SDS011;7917;50.818;6.972;2024-03-25T05:24:14;25.58;;;6.22;;
15635;SDS011;7917;50.818;6.972;2024-03-25T05:26:43;14.30;;;4.53;;
15635;SDS011;7917;50.818;6.972;2024-03-25T05:29:09;16.98;;;5.18;;
15635;SDS011;7917;50.818;6.972;2024-03-25T05:31:35;16.55;;;5.30;;
15635;SDS011;7917;50.818;6.972;2024-03-25T05:34:03;18.00;;;4.88;;
15635;SDS011;7917;50.818;6.972;2024-03-25T05:36:33;22.13;;;6.50;;
15635;SDS011;7917;50.818;6.972;2024-03-25T05:39:00;21.70;;;4.70;;
15635;SDS011;7917;50.818;6.972;2024-03-25T05:41:30;21.45;;;5.75;;
15635;SDS011;7917;50.818;6.972;2024-03-25T05:43:56;21.83;;;5.70;;
15635;SDS011;7917;50.818;6.972;2024-03-25T05:46:23;18.25;;;4.80;;
15635;SDS011;7917;50.818;6.972;2024-03-25T05:48:49;16.42;;;4.47;;
15635;SDS011;7917;50.818;6.972;2024-03-25T05:51:15;21.35;;;4.63;;
15635;SDS011;7917;50.818;6.972;2024-03-25T05:53:47;24.98;;;4.80;;
15635;SDS011;7917;50.818;6.972;2024-03-25T05:56:13;17.23;;;6.18;;
15635;SDS011;7917;50.818;6.972;2024-03-25T05:58:41;18.00;;;5.10;;
15635;SDS011;7917;50.818;6.972;2024-03-25T06:01:07;12.93;;;4.47;;
15635;SDS011;7917;50.818;6.972;2024-03-25T06:03:33;17.48;;;5.05;;
15635;SDS011;7917;50.818;6.972;2024-03-25T06:05:59;20.80;;;5.63;;
15635;SDS011;7917;50.818;6.972;2024-03-25T06:08:27;21.65;;;5.95;;
15635;SDS011;7917;50.818;6.972;2024-03-25T06:10:54;20.00;;;5.15;;
15635;SDS011;7917;50.818;6.972;2024-03-25T06:13:25;12.60;;;5.38;;
15635;SDS011;7917;50.818;6.972;2024-03-25T06:15:51;16.45;;;7.45;;
15635;SDS011;7917;50.818;6.972;2024-03-25T06:18:19;17.35;;;8.13;;
15635;SDS011;7917;50.818;6.972;2024-03-25T06:20:48;24.55;;;6.38;;
15635;SDS011;7917;50.818;6.972;2024-03-25T06:23:21;17.02;;;5.70;;
15635;SDS011;7917;50.818;6.972;2024-03-25T06:25:49;18.42;;;5.90;;
15635;SDS011;7917;50.818;6.972;2024-03-25T06:28:16;15.32;;;5.65;;
15635;SDS011;7917;50.818;6.972;2024-03-25T06:30:42;14.70;;;5.97;;
15635;SDS011;7917;50.818;6.972;2024-03-25T06:33:34;22.23;;;5.55;;
15635;SDS011;7917;50.818;6.972;2024-03-25T06:36:20;15.15;;;5.43;;
15635;SDS011;7917;50.818;6.972;2024-03-25T06:38:47;12.43;;;4.97;;
15635;SDS011;7917;50.818;6.972;2024-03-25T06:41:13;13.13;;;5.25;;
15635;SDS011;7917;50.818;6.972;2024-03-25T06:43:40;11.45;;;4.18;;
15635;SDS011;7917;50.818;6.972;2024-03-25T06:46:06;11.40;;;4.15;;
15635;SDS011;7917;50.818;6.972;2024-03-25T06:48:32;15.18;;;4.03;;
15635;SDS011;7917;50.818;6.972;2024-03-25T06:50:59;13.63;;;4.15;;
15635;SDS011;7917;50.818;6.972;2024-03-25T06:53:30;10.63;;;3.75;;
15635;SDS011;7917;50.818;6.972;2024-03-25T06:55:57;12.88;;;4.00;;
15635;SDS011;7917;50.818;6.972;2024-03-25T06:58:28;9.68;;;3.60;;
15635;SDS011;7917;50.818;6.972;2024-03-25T07:00:56;11.30;;;4.43;;
15635;SDS011;7917;50.818;6.972;2024-03-25T07:03:29;10.05;;;3.47;;
15635;SDS011;7917;50.818;6.972;2024-03-25T07:05:55;7.75;;;3.17;;
15635;SDS011;7917;50.818;6.972;2024-03-25T07:08:23;10.75;;;3.58;;
15635;SDS011;7917;50.818;6.972;2024-03-25T07:10:49;9.82;;;3.92;;
15635;SDS011;7917;50.818;6.972;2024-03-25T07:13:19;14.43;;;3.58;;
15635;SDS011;7917;50.818;6.972;2024-03-25T07:15:54;7.60;;;3.53;;
15635;SDS011;7917;50.818;6.972;2024-03-25T07:18:21;8.20;;;3.38;;
15635;SDS011;7917;50.818;6.972;2024-03-25T07:20:48;11.15;;;3.83;;
15635;SDS011;7917;50.818;6.972;2024-03-25T07:23:14;9.07;;;3.42;;
15635;SDS011;7917;50.818;6.972;2024-03-25T07:25:40;7.43;;;3.30;;
15635;SDS011;7917;50.818;6.972;2024-03-25T07:28:06;9.00;;;3.85;;
15635;SDS011;7917;50.818;6.972;2024-03-25T07:30:33;13.50;;;5.95;;
15635;SDS011;7917;50.818;6.972;2024-03-25T07:33:00;10.80;;;3.70;;
15635;SDS011;7917;50.818;6.972;2024-03-25T07:35:28;8.77;;;3.63;;
15635;SDS011;7917;50.818;6.972;2024-03-25T07:37:55;9.23;;;3.90;;
15635;SDS011;7917;50.818;6.972;2024-03-25T07:40:22;6.65;;;3.25;;
15635;SDS011;7917;50.818;6.972;2024-03-25T07:42:48;10.55;;;4.07;;
15635;SDS011;7917;50.818;6.972;2024-03-25T07:45:14;9.98;;;3.47;;
15635;SDS011;7917;50.818;6.972;2024-03-25T07:47:42;11.23;;;3.20;;
15635;SDS011;7917;50.818;6.972;2024-03-25T07:50:09;7.88;;;3.28;;
15635;SDS011;7917;50.818;6.972;2024-03-25T07:52:35;12.70;;;4.18;;
15635;SDS011;7917;50.818;6.972;2024-03-25T07:55:06;11.13;;;3.38;;
15635;SDS011;7917;50.818;6.972;2024-03-25T07:57:33;13.98;;;3.65;;
15635;SDS011;7917;50.818;6.972;2024-03-25T07:59:59;8.75;;;3.45;;
15635;SDS011;7917;50.818;6.972;2024-03-25T08:02:25;8.43;;;3.30;;
15635;SDS011;7917;50.818;6.972;2024-03-25T08:04:52;9.55;;;3.75;;
15635;SDS011;7917;50.818;6.972;2024-03-25T08:07:19;14.43;;;3.88;;
15635;SDS011;7917;50.818;6.972;2024-03-25T08:09:45;12.18;;;4.07;;
15635;SDS011;7917;50.818;6.972;2024-03-25T08:12:11;16.65;;;3.42;;
15635;SDS011;7917;50.818;6.972;2024-03-25T08:17:51;7.88;;;3.03;;
15635;SDS011;7917;50.818;6.972;2024-03-25T08:20:18;14.75;;;3.63;;
15635;SDS011;7917;50.818;6.972;2024-03-25T08:22:46;15.80;;;3.67;;
15635;SDS011;7917;50.818;6.972;2024-03-25T08:25:14;9.63;;;3.65;;
15635;SDS011;7917;50.818;6.972;2024-03-25T08:27:40;15.35;;;3.78;;
15635;SDS011;7917;50.818;6.972;2024-03-25T08:30:08;9.90;;;3.20;;
15635;SDS011;7917;50.818;6.972;2024-03-25T08:32:35;15.82;;;3.70;;
15635;SDS011;7917;50.818;6.972;2024-03-25T08:35:04;15.05;;;3.97;;
15635;SDS011;7917;50.818;6.972;2024-03-25T08:37:33;14.82;;;4.03;;
15635;SDS011;7917;50.818;6.972;2024-03-25T08:39:59;9.90;;;3.42;;
15635;SDS011;7917;50.818;6.972;2024-03-25T08:42:26;18.52;;;3.25;;
15635;SDS011;7917;50.818;6.972;2024-03-25T08:44:52;11.07;;;3.15;;
15635;SDS011;7917;50.818;6.972;2024-03-25T08:47:18;8.57;;;3.30;;
15635;SDS011;7917;50.818;6.972;2024-03-25T08:49:45;11.38;;;3.35;;
15635;SDS011;7917;50.818;6.972;2024-03-25T08:52:14;14.30;;;3.25;;
15635;SDS011;7917;50.818;6.972;2024-03-25T08:54:42;9.50;;;2.53;;
15635;SDS011;7917;50.818;6.972;2024-03-25T08:57:08;9.70;;;3.40;;
15635;SDS011;7917;50.818;6.972;2024-03-25T08:59:36;15.77;;;6.32;;
15635;SDS011;7917;50.818;6.972;2024-03-25T09:02:02;12.55;;;3.80;;
15635;SDS011;7917;50.818;6.972;2024-03-25T09:04:29;13.70;;;2.70;;
15635;SDS011;7917;50.818;6.972;2024-03-25T09:06:56;10.00;;;3.17;;
15635;SDS011;7917;50.818;6.972;2024-03-25T09:09:23;13.35;;;3.20;;
15635;SDS011;7917;50.818;6.972;2024-03-25T09:12:08;15.93;;;3.20;;
15635;SDS011;7917;50.818;6.972;2024-03-25T09:14:35;11.52;;;3.40;;
15635;SDS011;7917;50.818;6.972;2024-03-25T09:17:04;13.48;;;3.90;;
15635;SDS011;7917;50.818;6.972;2024-03-25T09:19:30;17.20;;;4.07;;
15635;SDS011;7917;50.818;6.972;2024-03-25T09:21:56;15.70;;;3.90;;
15635;SDS011;7917;50.818;6.972;2024-03-25T09:24:23;15.88;;;3.80;;
15635;SDS011;7917;50.818;6.972;2024-03-25T09:26:49;10.05;;;3.28;;
15635;SDS011;7917;50.818;6.972;2024-03-25T09:29:18;10.07;;;3.58;;
15635;SDS011;7917;50.818;6.972;2024-03-25T09:31:44;14.15;;;3.40;;
15635;SDS011;7917;50.818;6.972;2024-03-25T09:34:10;12.68;;;3.80;;
15635;SDS011;7917;50.818;6.972;2024-03-25T09:36:36;12.70;;;3.50;;
15635;SDS011;7917;50.818;6.972;2024-03-25T09:39:03;11.77;;;3.08;;
15635;SDS011;7917;50.818;6.972;2024-03-25T09:41:30;11.40;;;3.90;;
15635;SDS011;7917;50.818;6.972;2024-03-25T09:44:00;7.72;;;2.78;;
15635;SDS011;7917;50.818;6.972;2024-03-25T09:46:30;9.18;;;2.83;;
15635;SDS011;7917;50.818;6.972;2024-03-25T09:48:56;11.50;;;3.13;;
15635;SDS011;7917;50.818;6.972;2024-03-25T09:51:22;12.43;;;2.97;;
15635;SDS011;7917;50.818;6.972;2024-03-25T09:53:49;13.07;;;2.92;;
15635;SDS011;7917;50.818;6.972;2024-03-25T09:56:15;11.68;;;3.15;;
15635;SDS011;7917;50.818;6.972;2024-03-25T09:58:43;11.48;;;3.03;;
15635;SDS011;7917;50.818;6.972;2024-03-25T10:01:10;12.13;;;2.75;;
15635;SDS011;7917;50.818;6.972;2024-03-25T10:03:37;8.10;;;2.95;;
15635;SDS011;7917;50.818;6.972;2024-03-25T10:06:04;9.13;;;3.00;;
15635;SDS011;7917;50.818;6.972;2024-03-25T10:08:31;11.55;;;2.58;;
15635;SDS011;7917;50.818;6.972;2024-03-25T10:10:58;9.68;;;2.60;;
15635;SDS011;7917;50.818;6.972;2024-03-25T10:13:27;7.28;;;2.42;;
15635;SDS011;7917;50.818;6.972;2024-03-25T10:15:54;8.32;;;3.03;;
15635;SDS011;7917;50.818;6.972;2024-03-25T10:18:21;9.30;;;2.70;;
15635;SDS011;7917;50.818;6.972;2024-03-25T10:20:48;12.70;;;3.00;;
15635;SDS011;7917;50.818;6.972;2024-03-25T10:23:19;6.75;;;2.30;;
15635;SDS011;7917;50.818;6.972;2024-03-25T10:25:47;7.35;;;2.90;;
15635;SDS011;7917;50.818;6.972;2024-03-25T10:28:14;8.23;;;2.28;;
15635;SDS011;7917;50.818;6.972;2024-03-25T10:30:43;6.22;;;2.17;;
15635;SDS011;7917;50.818;6.972;2024-03-25T10:33:09;9.40;;;2.70;;
15635;SDS011;7917;50.818;6.972;2024-03-25T10:35:36;8.30;;;2.28;;
15635;SDS011;7917;50.818;6.972;2024-03-25T10:38:07;11.07;;;2.50;;
15635;SDS011;7917;50.818;6.972;2024-03-25T10:40:36;6.22;;;1.95;;
15635;SDS011;7917;50.818;6.972;2024-03-25T10:43:03;4.88;;;1.83;;
15635;SDS011;7917;50.818;6.972;2024-03-25T10:45:31;5.63;;;1.85;;
15635;SDS011;7917;50.818;6.972;2024-03-25T10:48:02;3.20;;;1.73;;
15635;SDS011;7917;50.818;6.972;2024-03-25T10:50:34;7.25;;;1.60;;
15635;SDS011;7917;50.818;6.972;2024-03-25T10:53:02;4.25;;;1.73;;
15635;SDS011;7917;50.818;6.972;2024-03-25T10:55:35;5.50;;;1.50;;
15635;SDS011;7917;50.818;6.972;2024-03-25T10:58:06;4.15;;;1.52;;
15635;SDS011;7917;50.818;6.972;2024-03-25T11:00:33;7.47;;;1.50;;
15635;SDS011;7917;50.818;6.972;2024-03-25T11:03:00;7.28;;;1.77;;
15635;SDS011;7917;50.818;6.972;2024-03-25T11:05:28;6.15;;;2.00;;
15635;SDS011;7917;50.818;6.972;2024-03-25T11:07:55;4.47;;;2.00;;
15635;SDS011;7917;50.818;6.972;2024-03-25T11:10:28;6.82;;;2.20;;
15635;SDS011;7917;50.818;6.972;2024-03-25T11:12:56;6.20;;;2.05;;
15635;SDS011;7917;50.818;6.972;2024-03-25T11:15:35;9.18;;;2.88;;
15635;SDS011;7917;50.818;6.972;2024-03-25T11:18:03;7.00;;;2.35;;
15635;SDS011;7917;50.818;6.972;2024-03-25T11:20:34;12.15;;;2.35;;
15635;SDS011;7917;50.818;6.972;2024-03-25T11:23:07;8.10;;;1.95;;
15635;SDS011;7917;50.818;6.972;2024-03-25T11:25:37;7.88;;;2.33;;
15635;SDS011;7917;50.818;6.972;2024-03-25T11:28:05;9.35;;;2.03;;
15635;SDS011;7917;50.818;6.972;2024-03-25T11:30:33;4.53;;;1.50;;
15635;SDS011;7917;50.818;6.972;2024-03-25T11:33:01;6.80;;;2.55;;
15635;SDS011;7917;50.818;6.972;2024-03-25T11:35:29;5.03;;;2.00;;
15635;SDS011;7917;50.818;6.972;2024-03-25T11:38:03;3.95;;;1.77;;
15635;SDS011;7917;50.818;6.972;2024-03-25T11:40:29;4.85;;;1.70;;
15635;SDS011;7917;50.818;6.972;2024-03-25T11:42:56;5.13;;;1.73;;
15635;SDS011;7917;50.818;6.972;2024-03-25T11:45:25;6.03;;;2.15;;
15635;SDS011;7917;50.818;6.972;2024-03-25T11:47:52;8.82;;;2.20;;
15635;SDS011;7917;50.818;6.972;2024-03-25T11:50:18;7.70;;;2.38;;
15635;SDS011;7917;50.818;6.972;2024-03-25T11:52:47;5.78;;;2.72;;
15635;SDS011;7917;50.818;6.972;2024-03-25T11:55:16;6.75;;;2.00;;
15635;SDS011;7917;50.818;6.972;2024-03-25T11:57:43;8.68;;;2.40;;
15635;SDS011;7917;50.818;6.972;2024-03-25T12:00:10;5.60;;;2.83;;
15635;SDS011;7917;50.818;6.972;2024-03-25T12:02:43;7.05;;;2.13;;
15635;SDS011;7917;50.818;6.972;2024-03-25T12:05:10;5.28;;;1.70;;
15635;SDS011;7917;50.818;6.972;2024-03-25T12:07:37;13.15;;;2.30;;
15635;SDS011;7917;50.818;6.972;2024-03-25T12:10:04;5.32;;;1.98;;
15635;SDS011;7917;50.818;6.972;2024-03-25T12:12:49;7.95;;;2.08;;
15635;SDS011;7917;50.818;6.972;2024-03-25T12:15:16;5.22;;;2.22;;
15635;SDS011;7917;50.818;6.972;2024-03-25T12:17:44;4.50;;;2.17;;
15635;SDS011;7917;50.818;6.972;2024-03-25T12:20:11;7.70;;;1.98;;
15635;SDS011;7917;50.818;6.972;2024-03-25T12:22:39;2.80;;;1.55;;
15635;SDS011;7917;50.818;6.972;2024-03-25T12:25:06;2.95;;;1.50;;
15635;SDS011;7917;50.818;6.972;2024-03-25T12:27:34;3.38;;;1.35;;
15635;SDS011;7917;50.818;6.972;2024-03-25T12:30:02;6.50;;;1.98;;
15635;SDS011;7917;50.818;6.972;2024-03-25T12:32:32;4.70;;;1.50;;
15635;SDS011;7917;50.818;6.972;2024-03-25T12:35:03;3.80;;;1.60;;
15635;SDS011;7917;50.818;6.972;2024-03-25T12:37:35;6.80;;;2.13;;
15635;SDS011;7917;50.818;6.972;2024-03-25T12:40:03;5.63;;;1.80;;
15635;SDS011;7917;50.818;6.972;2024-03-25T12:42:32;6.15;;;1.80;;
15635;SDS011;7917;50.818;6.972;2024-03-25T12:45:00;10.43;;;2.20;;
15635;SDS011;7917;50.818;6.972;2024-03-25T12:47:29;2.78;;;1.60;;
15635;SDS011;7917;50.818;6.972;2024-03-25T12:49:56;6.78;;;2.10;;
15635;SDS011;7917;50.818;6.972;2024-03-25T12:52:23;6.25;;;1.83;;
15635;SDS011;7917;50.818;6.972;2024-03-25T12:54:50;5.35;;;1.92;;
15635;SDS011;7917;50.818;6.972;2024-03-25T12:57:16;3.38;;;1.80;;
15635;SDS011;7917;50.818;6.972;2024-03-25T12:59:45;3.90;;;1.60;;
15635;SDS011;7917;50.818;6.972;2024-03-25T13:02:12;5.35;;;1.70;;
15635;SDS011;7917;50.818;6.972;2024-03-25T13:04:38;3.22;;;1.60;;
15635;SDS011;7917;50.818;6.972;2024-03-25T13:07:07;8.02;;;2.50;;
15635;SDS011;7917;50.818;6.972;2024-03-25T13:09:34;8.50;;;2.30;;
15635;SDS011;7917;50.818;6.972;2024-03-25T13:12:02;4.95;;;1.90;;
15635;SDS011;7917;50.818;6.972;2024-03-25T13:14:29;9.52;;;2.25;;
15635;SDS011;7917;50.818;6.972;2024-03-25T13:16:56;4.65;;;2.03;;
15635;SDS011;7917;50.818;6.972;2024-03-25T13:19:22;5.40;;;2.05;;
15635;SDS011;7917;50.818;6.972;2024-03-25T13:21:51;5.15;;;1.70;;
15635;SDS011;7917;50.818;6.972;2024-03-25T13:24:18;4.72;;;2.08;;
15635;SDS011;7917;50.818;6.972;2024-03-25T13:26:45;4.32;;;1.80;;
15635;SDS011;7917;50.818;6.972;2024-03-25T13:29:11;7.70;;;1.92;;
15635;SDS011;7917;50.818;6.972;2024-03-25T13:31:38;4.45;;;2.10;;
15635;SDS011;7917;50.818;6.972;2024-03-25T13:34:04;5.80;;;1.98;;
15635;SDS011;7917;50.818;6.972;2024-03-25T13:36:31;3.60;;;1.58;;
15635;SDS011;7917;50.818;6.972;2024-03-25T13:38:57;4.65;;;2.08;;
15635;SDS011;7917;50.818;6.972;2024-03-25T13:41:25;5.05;;;1.65;;
15635;SDS011;7917;50.818;6.972;2024-03-25T13:43:52;6.63;;;2.30;;
15635;SDS011;7917;50.818;6.972;2024-03-25T13:46:19;5.55;;;1.70;;
15635;SDS011;7917;50.818;6.972;2024-03-25T13:48:46;6.22;;;1.55;;
15635;SDS011;7917;50.818;6.972;2024-03-25T13:51:13;9.68;;;2.20;;
15635;SDS011;7917;50.818;6.972;2024-03-25T13:53:39;4.90;;;2.13;;
15635;SDS011;7917;50.818;6.972;2024-03-25T13:56:06;5.50;;;1.77;;
15635;SDS011;7917;50.818;6.972;2024-03-25T13:58:33;4.03;;;2.10;;
15635;SDS011;7917;50.818;6.972;2024-03-25T14:01:00;4.65;;;1.90;;
15635;SDS011;7917;50.818;6.972;2024-03-25T14:03:27;3.75;;;2.00;;
15635;SDS011;7917;50.818;6.972;2024-03-25T14:05:53;6.57;;;1.80;;
15635;SDS011;7917;50.818;6.972;2024-03-25T14:08:20;5.97;;;2.40;;
15635;SDS011;7917;50.818;6.972;2024-03-25T14:10:56;7.93;;;2.03;;
15635;SDS011;7917;50.818;6.972;2024-03-25T14:13:23;6.90;;;2.55;;
15635;SDS011;7917;50.818;6.972;2024-03-25T14:15:50;5.80;;;3.03;;
15635;SDS011;7917;50.818;6.972;2024-03-25T14:18:17;5.82;;;2.05;;
15635;SDS011;7917;50.818;6.972;2024-03-25T14:20:44;3.17;;;1.48;;
15635;SDS011;7917;50.818;6.972;2024-03-25T14:23:12;5.57;;;1.92;;
15635;SDS011;7917;50.818;6.972;2024-03-25T14:25:38;3.13;;;1.67;;
15635;SDS011;7917;50.818;6.972;2024-03-25T14:28:06;7.88;;;1.98;;
15635;SDS011;7917;50.818;6.972;2024-03-25T14:30:33;6.50;;;1.65;;
15635;SDS011;7917;50.818;6.972;2024-03-25T14:33:00;4.20;;;1.73;;
15635;SDS011;7917;50.818;6.972;2024-03-25T14:35:35;5.57;;;1.75;;
15635;SDS011;7917;50.818;6.972;2024-03-25T14:38:03;6.55;;;2.25;;
15635;SDS011;7917;50.818;6.972;2024-03-25T14:40:29;7.55;;;2.15;;
15635;SDS011;7917;50.818;6.972;2024-03-25T14:42:56;9.02;;;1.95;;
15635;SDS011;7917;50.818;6.972;2024-03-25T14:45:22;3.53;;;1.83;;
15635;SDS011;7917;50.818;6.972;2024-03-25T14:47:49;5.85;;;2.05;;
15635;SDS011;7917;50.818;6.972;2024-03-25T14:50:15;7.78;;;2.15;;
15635;SDS011;7917;50.818;6.972;2024-03-25T14:52:43;2.38;;;1.65;;
15635;SDS011;7917;50.818;6.972;2024-03-25T14:55:11;4.97;;;3.15;;
15635;SDS011;7917;50.818;6.972;2024-03-25T14:57:39;5.32;;;1.58;;
15635;SDS011;7917;50.818;6.972;2024-03-25T15:00:06;5.00;;;1.98;;
15635;SDS011;7917;50.818;6.972;2024-03-25T15:02:33;16.40;;;2.38;;